• Join FlightAware (Why Join?)
  • Login
  • US Flag 
04:20PM EDT


 

Airport Tracker/Info


-or-


 

Live Flight TrackerFlight Track Log ✈ N39PH ✈ 05-May-2013 ✈ KGUP - KABQ

Flight Track Log - Related Links

Times and Time Zones

All times are in EDT time to prevent confusion due to time zone crossing. See the N39PH flight status page for this flight to view local times or setup timezone preferences in your user account.

Time Position Orientation Groundspeed Altitude Reporting Facility
EDT Latitude Longitude Course Direction KTS MPH feet Rate Location/Type
10:49PM 35.4072 -108.1639 90° East 262 302 17,300  Level Albuquerque Center
10:50PM 35.3894 -108.0811 105° East 261 300 17,000 -180 Descending Albuquerque Center
10:51PM 35.3667 -107.9894 107° East 254 292 17,000  Level Albuquerque Center
10:52PM 35.3503 -107.9122 105° East 247 284 17,000  Level Albuquerque Center
10:53PM 35.3306 -107.8222 105° East 244 281 17,000  Level Albuquerque Center
10:54PM 35.3106 -107.7447 108° East 248 285 17,000  Level Albuquerque Center
10:55PM 35.4833 -108.3066 90° East  Level FlightAware Approximate
10:56PM 35.2933 -107.6650 105° East 250 288 17,000  Level Albuquerque Center
10:57PM 35.2736 -107.5683 104° East 258 297 17,100  Climbing Albuquerque Center
10:58PM 35.2567 -107.4936 106° East 262 302 17,000 -180 Descending Albuquerque Center
10:58PM 35.2317 -107.4033 109° East 261 300 16,800 -540 Descending Albuquerque Center
10:59PM 35.2228 -107.3642 106° East 258 297 16,300 -840 Descending Albuquerque Center
11:00PM 35.2142 -107.3256 105° East 256 295 15,900 -900 Descending Albuquerque Center
11:00PM 35.2006 -107.2814 111° Southeast 256 295 15,400 -1,140 Descending Albuquerque Center
11:01PM 35.1878 -107.2269 106° East 255 293 14,800 -600 Descending Albuquerque Center
11:01PM 35.1819 -107.1978 104° East 252 290 14,800 -840 Level Albuquerque Center
11:02PM 35.1692 -107.1469 107° East 247 284 14,000 -900 Descending Albuquerque Center
11:02PM 35.1625 -107.1197 107° East 242 278 13,900 -720 Descending Albuquerque Center
11:03PM 35.1494 -107.0714 108° East 237 273 13,300 -900 Descending Albuquerque Center
11:03PM 35.1422 -107.0392 105° East 230 265 13,000 -780 Descending Albuquerque Center
11:04PM 35.1331 -106.9942 104° East 235 270 12,500 -840 Descending Albuquerque Center
11:04PM 35.1192 -106.9672 122° Southeast 230 265 12,200 -1,020 Descending Albuquerque Center
11:05PM 35.0997 -106.9278 121° Southeast 233 268 11,500 -1,200 Descending Albuquerque Center
11:05PM 35.0864 -106.9003 121° Southeast 225 259 11,000 -720 Descending Albuquerque Center
11:06PM 35.0722 -106.8706 120° Southeast 226 260 10,800 -1,020 Descending Albuquerque Center
11:06PM 35.0531 -106.8308 121° Southeast 220 253 9,900 -1,320 Descending Albuquerque Center
11:07PM 35.0325 -106.7964 126° Southeast 221 254 9,500 -780 Descending Albuquerque Center
11:07PM 35.0236 -106.7842 132° Southeast 191 220 9,200 -1,320 Descending Albuquerque Center
11:08PM 35.0050 -106.7528 126° Southeast 184 212 8,200 -1,380 Descending Albuquerque Center
11:08PM 34.9989 -106.7386 118° Southeast 151 174 7,800 -1,200 Descending Albuquerque Center
11:09PM 34.9844 -106.7064 119° Southeast 166 191 7,000 -1,140 Descending Albuquerque Center
11:09PM 34.9828 -106.6961 101° East 126 145 6,700 -900 Descending Albuquerque Center
11:10PM 34.9897 -106.6692 73° East 134 154 6,100 -600 Descending Albuquerque Center
11:11PM 35.0156 -106.6383 44° Northeast 99 114 5,600 -420 Descending Albuquerque Center
11:12PM 35.0292 -106.6217 45° Northeast 105 121 5,300 -360 Descending Albuquerque Center